Time;durP1;ratioP1;P1;durP2;ratioP2;P2;SDS_P1;SDS_P2;PMS_P1;PMS_P2;Temp;Humidity;BMP_temperature;BMP_pressure;BME280_temperature;BME280_humidity;BME280_pressure;Samples;Min_cycle;Max_cycle;Signal;HPM_P1;HPM_P2
2023/09/08 00:02:26;;;;;;;41.42;19.65;;;;;;;16.39;100.00;100972.66;5054608;28;20033;-88
2023/09/08 00:04:52;;;;;;;35.03;17.10;;;;;;;16.32;100.00;100974.53;5036045;28;20609;-87
2023/09/08 00:07:17;;;;;;;35.35;17.67;;;;;;;16.20;100.00;100971.63;5054727;28;20242;-87
2023/09/08 00:09:43;;;;;;;38.60;17.98;;;;;;;16.09;100.00;100964.94;5052921;28;20126;-87
2023/09/08 00:12:08;;;;;;;36.75;17.80;;;;;;;16.02;100.00;100964.06;5054403;28;20468;-87
2023/09/08 00:14:34;;;;;;;38.10;18.38;;;;;;;16.01;100.00;100952.41;5053171;28;20036;-87
2023/09/08 00:17:00;;;;;;;42.03;19.77;;;;;;;16.05;100.00;100959.06;5036717;28;20024;-87
2023/09/08 00:19:25;;;;;;;40.40;18.15;;;;;;;16.11;100.00;100960.09;5036365;28;20452;-87
2023/09/08 00:21:51;;;;;;;48.10;22.27;;;;;;;16.15;100.00;100960.56;5054405;28;20039;-87
2023/09/08 00:24:18;;;;;;;50.47;22.20;;;;;;;16.22;100.00;100962.22;5053050;28;20043;-87
2023/09/08 00:26:44;;;;;;;44.92;21.92;;;;;;;16.23;100.00;100960.34;5054035;28;20032;-86
2023/09/08 00:29:10;;;;;;;45.25;19.73;;;;;;;16.17;100.00;100956.59;5052952;28;20029;-90
2023/09/08 00:31:35;;;;;;;36.20;17.92;;;;;;;16.01;100.00;100957.00;5036609;28;20072;-86
2023/09/08 00:34:01;;;;;;;29.58;15.40;;;;;;;15.88;100.00;100963.22;5052951;28;20043;-90
2023/09/08 00:36:27;;;;;;;32.67;16.10;;;;;;;15.80;100.00;100960.72;5054110;28;20376;-87
2023/09/08 00:38:52;;;;;;;34.90;16.08;;;;;;;15.76;100.00;100962.97;5054094;28;20079;-89
2023/09/08 00:41:18;;;;;;;38.45;18.20;;;;;;;15.75;100.00;100961.31;5052804;28;20029;-87
2023/09/08 00:43:43;;;;;;;36.17;19.10;;;;;;;15.87;100.00;100961.53;5036119;28;20025;-87
2023/09/08 00:46:09;;;;;;;46.70;20.00;;;;;;;15.90;100.00;100955.69;5052918;28;20091;-86
2023/09/08 00:48:35;;;;;;;37.67;18.02;;;;;;;15.96;100.00;100964.91;5019732;28;20388;-87
2023/09/08 00:51:01;;;;;;;48.72;21.80;;;;;;;15.94;100.00;100969.69;5053959;28;20095;-87
2023/09/08 00:53:27;;;;;;;45.25;21.40;;;;;;;15.86;100.00;100965.31;5052733;28;20029;-87
2023/09/08 00:55:54;;;;;;;46.75;20.95;;;;;;;15.85;100.00;100965.50;5052692;28;20041;-88
2023/09/08 00:58:19;;;;;;;50.05;22.05;;;;;;;15.85;100.00;100962.78;5052407;28;20056;-86
2023/09/08 01:00:45;;;;;;;51.25;23.98;;;;;;;15.91;100.00;100956.56;5052959;28;20472;-87
2023/09/08 01:03:13;;;;;;;50.63;23.45;;;;;;;15.90;100.00;100952.16;5069137;28;20031;-86
2023/09/08 01:05:39;;;;;;;54.40;23.85;;;;;;;15.91;100.00;100956.56;5053444;28;20025;-86
2023/09/08 01:08:05;;;;;;;64.20;26.08;;;;;;;15.90;100.00;100965.72;5052399;28;20028;-86
2023/09/08 01:10:31;;;;;;;51.97;24.17;;;;;;;15.88;100.00;100967.78;5052278;28;20029;-86
2023/09/08 01:12:56;;;;;;;53.25;22.55;;;;;;;15.91;100.00;100961.97;5052012;28;20029;-87
2023/09/08 01:15:22;;;;;;;55.33;23.15;;;;;;;15.91;100.00;100964.69;5051931;28;20135;-87
2023/09/08 01:17:48;;;;;;;45.70;22.42;;;;;;;15.91;100.00;100962.81;5069245;28;20467;-87
2023/09/08 01:20:35;;;;;;;51.15;24.27;;;;;;;15.85;100.00;100957.34;5069759;28;20044;-87
2023/09/08 01:23:34;;;;;;;49.47;23.92;;;;;;;15.83;100.00;100958.41;5055692;28;20033;-85
2023/09/08 01:26:04;;;;;;;45.47;20.80;;;;;;;15.75;100.00;100957.78;5049569;28;20037;-87
2023/09/08 01:28:31;;;;;;;56.35;24.40;;;;;;;15.69;100.00;100955.88;5052147;28;20028;-87
2023/09/08 01:30:57;;;;;;;52.35;22.05;;;;;;;15.61;100.00;100952.28;5019542;28;20037;-87
2023/09/08 01:33:23;;;;;;;44.90;21.42;;;;;;;15.49;100.00;100955.78;5035759;28;20037;-87
2023/09/08 01:35:49;;;;;;;52.22;23.95;;;;;;;15.43;100.00;100962.00;5053222;28;20029;-87
2023/09/08 01:38:14;;;;;;;56.90;24.65;;;;;;;15.45;100.00;100949.91;5035535;28;20488;-86
2023/09/08 01:40:40;;;;;;;58.10;24.60;;;;;;;15.50;100.00;100955.56;5035460;28;20032;-87
2023/09/08 01:43:06;;;;;;;71.82;26.08;;;;;;;15.54;100.00;100950.59;5035773;28;20123;-87
2023/09/08 01:45:31;;;;;;;53.00;23.92;;;;;;;15.56;100.00;100954.78;5053389;28;20036;-87
2023/09/08 01:47:57;;;;;;;45.92;23.02;;;;;;;15.48;100.00;100952.25;5051980;28;20033;-87
2023/09/08 01:50:24;;;;;;;40.92;21.45;;;;;;;15.41;100.00;100956.81;5052200;28;20087;-86
2023/09/08 01:52:50;;;;;;;43.08;19.30;;;;;;;15.29;100.00;100956.53;5053271;28;20491;-86
2023/09/08 01:55:16;;;;;;;36.85;18.92;;;;;;;15.21;100.00;100951.28;5035538;28;20079;-86
2023/09/08 01:57:43;;;;;;;44.72;17.98;;;;;;;15.14;100.00;100956.69;5052040;28;20028;-86
2023/09/08 02:00:10;;;;;;;48.97;21.17;;;;;;;15.16;100.00;100953.75;5051749;28;20116;-87
2023/09/08 02:02:36;;;;;;;48.65;22.85;;;;;;;15.19;100.00;100961.50;5052014;28;20090;-89
2023/09/08 02:05:01;;;;;;;49.28;22.55;;;;;;;15.25;100.00;100957.16;5052145;28;20033;-87
2023/09/08 02:07:27;;;;;;;62.33;24.48;;;;;;;15.20;100.00;100956.94;5052755;28;20369;-86
2023/09/08 02:09:52;;;;;;;50.85;22.75;;;;;;;15.17;100.00;100956.28;5052904;28;20472;-86
2023/09/08 02:12:18;;;;;;;57.08;24.17;;;;;;;15.07;100.00;100947.69;5052186;28;20036;-86
2023/09/08 02:14:44;;;;;;;48.67;24.58;;;;;;;15.13;100.00;100960.41;5053260;28;20033;-86
2023/09/08 02:17:10;;;;;;;43.40;21.15;;;;;;;15.11;100.00;100965.22;5035469;28;20033;-87
2023/09/08 02:19:36;;;;;;;45.78;21.10;;;;;;;15.05;100.00;100966.00;5052136;28;20056;-86
2023/09/08 02:22:02;;;;;;;49.53;22.83;;;;;;;15.00;100.00;100956.81;5051500;28;20127;-88
2023/09/08 02:24:27;;;;;;;52.85;23.30;;;;;;;14.95;100.00;100960.13;5052489;28;20493;-88
2023/09/08 02:26:53;;;;;;;51.30;22.50;;;;;;;14.88;100.00;100951.97;5051873;28;20048;-88
2023/09/08 02:29:18;;;;;;;51.20;24.10;;;;;;;14.86;100.00;100951.31;5071141;28;20509;-86
2023/09/08 02:31:44;;;;;;;49.17;24.00;;;;;;;14.91;100.00;100959.69;5056671;28;20021;-86
2023/09/08 02:34:12;;;;;;;49.80;22.08;;;;;;;14.84;100.00;100969.63;5054635;28;20032;-86
2023/09/08 02:36:38;;;;;;;38.53;19.95;;;;;;;14.76;100.00;100966.25;5055275;28;20120;-88
2023/09/08 02:39:04;;;;;;;47.72;21.48;;;;;;;14.72;100.00;100968.53;5055447;28;20134;-86
2023/09/08 02:41:29;;;;;;;47.65;20.55;;;;;;;14.62;100.00;100968.03;5055319;28;20036;-86
2023/09/08 02:43:55;;;;;;;43.42;21.45;;;;;;;14.59;100.00;100973.84;5054971;28;20035;-86
2023/09/08 02:46:20;;;;;;;50.40;23.25;;;;;;;14.60;100.00;100970.94;5056234;28;20060;-85
2023/09/08 02:48:46;;;;;;;53.40;22.55;;;;;;;14.65;100.00;100975.75;5056162;28;20081;-85
2023/09/08 02:51:12;;;;;;;44.70;21.40;;;;;;;14.68;100.00;100973.47;5071332;28;20029;-85
2023/09/08 02:53:37;;;;;;;56.00;23.38;;;;;;;14.66;100.00;100963.88;5039716;28;20467;-86
2023/09/08 02:56:05;;;;;;;44.55;21.27;;;;;;;14.59;100.00;100968.44;5056112;28;20025;-87
2023/09/08 02:58:34;;;;;;;52.20;21.73;;;;;;;14.59;100.00;100971.97;5054699;28;20033;-85
2023/09/08 03:01:11;;;;;;;45.05;20.63;;;;;;;14.59;100.00;100963.03;5055054;28;20391;-86
2023/09/08 03:03:37;;;;;;;46.85;21.63;;;;;;;14.67;100.00;100969.13;5054386;28;20145;-87
2023/09/08 03:06:03;;;;;;;47.88;23.60;;;;;;;14.72;100.00;100972.06;5054393;28;20032;-86
2023/09/08 03:08:29;;;;;;;54.13;23.23;;;;;;;14.74;100.00;100961.06;5037996;28;20029;-86
2023/09/08 03:10:58;;;;;;;60.00;24.50;;;;;;;14.82;100.00;100969.00;5054718;28;20055;-85
2023/09/08 03:13:25;;;;;;;47.88;23.27;;;;;;;14.99;100.00;100969.53;5038061;28;20033;-85
2023/09/08 03:15:52;;;;;;;56.35;23.55;;;;;;;15.04;100.00;100963.50;5054410;28;20040;-85
2023/09/08 03:18:18;;;;;;;57.17;24.60;;;;;;;14.98;100.00;100961.59;5088051;28;20068;-86
2023/09/08 03:20:48;;;;;;;59.38;24.98;;;;;;;14.93;100.00;100959.50;5054501;28;20075;-86
2023/09/08 03:23:15;;;;;;;51.53;24.88;;;;;;;14.91;100.00;100959.69;5054334;28;20404;-85
2023/09/08 03:25:41;;;;;;;63.35;25.60;;;;;;;14.92;100.00;100953.25;5055429;28;20467;-86
2023/09/08 03:28:06;;;;;;;54.22;22.83;;;;;;;14.91;100.00;100951.56;5053960;28;20060;-85
2023/09/08 03:30:32;;;;;;;55.20;23.25;;;;;;;14.93;100.00;100946.78;5037791;28;20036;-85
2023/09/08 03:32:58;;;;;;;64.35;23.15;;;;;;;14.93;100.00;100952.22;5054371;28;20448;-86
2023/09/08 03:35:23;;;;;;;58.95;24.95;;;;;;;14.86;100.00;100940.50;5053962;28;20116;-86
2023/09/08 03:37:49;;;;;;;74.47;26.15;;;;;;;14.94;100.00;100945.75;5054267;28;20033;-86
2023/09/08 03:40:14;;;;;;;74.63;28.27;;;;;;;15.09;100.00;100945.63;5054849;28;20025;-86
2023/09/08 03:42:42;;;;;;;67.38;27.05;;;;;;;15.20;100.00;100946.91;5054063;28;20091;-85
2023/09/08 03:45:08;;;;;;;64.95;27.17;;;;;;;15.22;100.00;100944.03;5054081;28;20569;-85
2023/09/08 03:47:38;;;;;;;67.28;25.48;;;;;;;15.20;100.00;100944.22;5054614;28;20490;-85
2023/09/08 03:50:04;;;;;;;74.32;28.35;;;;;;;15.11;100.00;100940.84;5065642;28;20036;-84
2023/09/08 03:52:30;;;;;;;68.97;26.58;;;;;;;15.13;100.00;100948.75;5087334;28;20055;-85
2023/09/08 03:54:55;;;;;;;69.13;27.25;;;;;;;15.11;100.00;100948.97;5040822;28;20120;-85
2023/09/08 03:57:21;;;;;;;70.45;27.00;;;;;;;15.07;100.00;100944.97;5055088;28;20033;-86
2023/09/08 03:59:47;;;;;;;65.00;26.55;;;;;;;15.09;100.00;100942.91;5053737;28;20029;-85
2023/09/08 04:02:13;;;;;;;81.25;29.52;;;;;;;15.13;100.00;100941.47;5054510;28;20032;-86
2023/09/08 04:04:38;;;;;;;81.15;30.30;;;;;;;15.29;100.00;100948.41;5054389;28;20028;-85
2023/09/08 04:07:04;;;;;;;79.03;28.83;;;;;;;15.37;100.00;100939.25;5069464;28;20091;-85
2023/09/08 04:09:31;;;;;;;73.20;29.20;;;;;;;15.31;100.00;100943.63;5036725;28;20037;-85
2023/09/08 04:11:57;;;;;;;62.75;27.45;;;;;;;15.32;100.00;100949.88;5054633;28;20025;-86
2023/09/08 04:14:27;;;;;;;58.47;25.58;;;;;;;15.29;100.00;100964.66;5053267;28;20028;-86
2023/09/08 04:16:55;;;;;;;61.55;26.88;;;;;;;15.20;100.00;100962.34;5037534;28;20087;-86
2023/09/08 04:19:21;;;;;;;71.50;27.02;;;;;;;15.17;100.00;100960.88;5054413;28;20068;-85
2023/09/08 04:21:47;;;;;;;67.93;27.00;;;;;;;15.14;100.00;100969.41;5053167;28;20428;-85
2023/09/08 04:24:24;;;;;;;57.00;26.08;;;;;;;15.17;100.00;100972.53;5054198;28;20029;-85
2023/09/08 04:26:50;;;;;;;67.35;26.73;;;;;;;15.17;100.00;100964.41;5020681;28;20033;-85
2023/09/08 04:29:15;;;;;;;68.85;27.20;;;;;;;15.18;100.00;100955.22;5036312;28;20031;-86
2023/09/08 04:31:41;;;;;;;50.72;23.45;;;;;;;15.20;100.00;100965.88;5052913;28;20495;-85
2023/09/08 04:34:06;;;;;;;54.15;25.20;;;;;;;15.15;100.00;100962.94;5053955;28;20033;-86
2023/09/08 04:36:32;;;;;;;48.53;22.52;;;;;;;15.09;100.00;100963.75;5052765;28;20044;-85
2023/09/08 04:38:57;;;;;;;61.00;24.65;;;;;;;15.04;100.00;100960.81;5052900;28;20033;-85
2023/09/08 04:41:23;;;;;;;55.05;24.38;;;;;;;15.06;100.00;100956.03;5053735;28;20461;-85
2023/09/08 04:43:49;;;;;;;66.78;26.38;;;;;;;15.10;100.00;100951.88;5053441;28;20037;-85
2023/09/08 04:46:14;;;;;;;61.42;27.17;;;;;;;15.14;100.00;100942.31;5052393;28;20037;-85
2023/09/08 04:48:40;;;;;;;66.05;27.85;;;;;;;15.13;100.00;100948.75;5053790;28;20036;-85
2023/09/08 04:51:05;;;;;;;70.20;26.88;;;;;;;15.16;100.00;100945.63;5052270;28;20535;-85
2023/09/08 04:53:32;;;;;;;76.10;30.33;;;;;;;15.23;100.00;100943.81;5053866;28;20025;-88
2023/09/08 04:55:59;;;;;;;71.93;28.13;;;;;;;15.28;100.00;100945.91;5052354;28;20040;-85
2023/09/08 04:58:25;;;;;;;90.53;31.63;;;;;;;15.25;100.00;100955.28;5052394;28;20373;-86
2023/09/08 05:00:51;;;;;;;89.03;33.42;;;;;;;15.30;100.00;100958.22;5052346;28;20387;-85
2023/09/08 05:03:17;;;;;;;77.63;32.20;;;;;;;15.43;100.00;100967.41;5053729;28;20040;-85
2023/09/08 05:05:42;;;;;;;78.00;31.35;;;;;;;15.43;100.00;100959.28;5052362;28;20059;-85
2023/09/08 05:08:08;;;;;;;84.03;33.08;;;;;;;15.43;100.00;100957.44;5052100;28;20035;-86
2023/09/08 05:10:33;;;;;;;90.10;32.97;;;;;;;15.45;100.00;100962.63;5052236;28;20043;-85
2023/09/08 05:12:59;;;;;;;81.07;31.58;;;;;;;15.44;100.00;100960.97;5069140;28;20025;-84
2023/09/08 05:15:25;;;;;;;91.53;32.85;;;;;;;15.37;100.00;100953.69;5052380;28;20543;-85
2023/09/08 05:17:51;;;;;;;87.13;32.25;;;;;;;15.31;100.00;100953.63;5052474;28;20075;-86
2023/09/08 05:20:17;;;;;;;76.40;30.85;;;;;;;15.27;100.00;100949.66;5052358;28;20026;-85
2023/09/08 05:22:42;;;;;;;83.18;29.23;;;;;;;15.22;100.00;100957.56;5035808;28;20021;-85
2023/09/08 05:25:08;;;;;;;72.60;28.13;;;;;;;15.21;100.00;100961.28;5069122;28;20033;-85
2023/09/08 05:27:34;;;;;;;67.35;27.85;;;;;;;15.18;100.00;100965.25;5053518;28;20033;-85
2023/09/08 05:29:59;;;;;;;64.38;27.77;;;;;;;15.15;100.00;100966.47;5053737;28;20025;-85
2023/09/08 05:32:25;;;;;;;75.10;28.40;;;;;;;15.17;100.00;100974.41;5052526;28;20473;-85
2023/09/08 05:34:50;;;;;;;87.93;32.03;;;;;;;15.22;100.00;100973.81;5053305;28;20027;-86
2023/09/08 05:37:16;;;;;;;81.00;30.67;;;;;;;15.24;100.00;100969.88;5035946;28;20101;-85
2023/09/08 05:39:42;;;;;;;85.97;31.95;;;;;;;15.28;100.00;100973.84;5053397;28;20114;-85
2023/09/08 05:42:07;;;;;;;83.35;30.08;;;;;;;15.36;100.00;100970.13;5035589;28;20033;-85
2023/09/08 05:44:33;;;;;;;99.80;31.90;;;;;;;15.39;100.00;100970.53;5052981;28;20159;-88
2023/09/08 05:46:58;;;;;;;90.70;32.05;;;;;;;15.42;100.00;100965.75;5052135;28;20033;-85
2023/09/08 05:49:25;;;;;;;79.63;30.48;;;;;;;15.47;100.00;100974.94;5035345;28;20033;-85
2023/09/08 05:51:50;;;;;;;92.25;32.45;;;;;;;15.47;100.00;100972.25;5052085;28;20028;-85
2023/09/08 05:54:16;;;;;;;96.70;31.95;;;;;;;15.55;100.00;100973.94;5052011;28;20051;-85
2023/09/08 05:56:41;;;;;;;88.68;31.67;;;;;;;15.58;100.00;100978.94;5035362;28;20438;-85
2023/09/08 05:59:07;;;;;;;78.90;29.50;;;;;;;15.57;100.00;100980.81;5051690;28;20395;-86
2023/09/08 06:01:36;;;;;;;78.65;30.42;;;;;;;15.56;100.00;100975.63;5052785;28;20029;-85
2023/09/08 06:04:02;;;;;;;70.43;28.88;;;;;;;15.63;100.00;100981.88;5021959;28;20472;-86
2023/09/08 06:06:28;;;;;;;70.68;29.33;;;;;;;15.71;100.00;100984.44;5072502;28;20144;-85
2023/09/08 06:08:54;;;;;;;80.05;31.30;;;;;;;15.77;100.00;100980.94;5038652;28;20511;-85
2023/09/08 06:11:19;;;;;;;83.95;32.53;;;;;;;15.85;100.00;100979.91;5055419;28;20025;-87
2023/09/08 06:13:45;;;;;;;100.47;33.88;;;;;;;15.93;100.00;100981.56;5055934;28;20379;-85
2023/09/08 06:16:10;;;;;;;84.00;32.05;;;;;;;15.94;100.00;100985.97;5059661;28;20108;-85
2023/09/08 06:18:39;;;;;;;93.35;32.65;;;;;;;15.93;100.00;100982.44;5069009;28;20044;-85
2023/09/08 06:21:07;;;;;;;92.50;32.22;;;;;;;15.90;100.00;100984.69;5061052;28;20041;-87
2023/09/08 06:23:33;;;;;;;88.60;32.60;;;;;;;15.90;100.00;100990.13;5039011;28;20114;-88
2023/09/08 06:26:00;;;;;;;77.05;30.23;;;;;;;15.93;100.00;100990.56;5038618;28;20040;-84
2023/09/08 06:28:27;;;;;;;87.22;34.50;;;;;;;15.93;100.00;100981.56;5054638;28;20021;-85
2023/09/08 06:30:53;;;;;;;88.35;33.10;;;;;;;16.04;100.00;100989.97;5056464;28;20110;-85
2023/09/08 06:33:19;;;;;;;94.75;33.67;;;;;;;16.10;100.00;100992.88;5055300;28;20156;-86
2023/09/08 06:35:46;;;;;;;86.55;31.55;;;;;;;16.16;100.00;101001.03;5055272;28;20084;-85
2023/09/08 06:38:11;;;;;;;87.15;32.78;;;;;;;16.17;100.00;101007.31;5055162;28;20118;-85
2023/09/08 06:40:37;;;;;;;84.50;31.48;;;;;;;16.23;100.00;101006.47;5056210;28;20057;-86
2023/09/08 06:43:03;;;;;;;94.88;33.65;;;;;;;16.36;100.00;101008.34;5055613;28;20025;-85
2023/09/08 06:45:29;;;;;;;91.10;32.90;;;;;;;16.46;100.00;101012.34;5052909;28;20460;-85
2023/09/08 06:47:55;;;;;;;77.30;31.45;;;;;;;16.48;100.00;101007.53;5052769;28;20017;-85
2023/09/08 06:50:23;;;;;;;84.47;33.97;;;;;;;16.65;100.00;101013.38;5052947;28;20029;-85
2023/09/08 06:52:50;;;;;;;84.38;31.38;;;;;;;16.65;100.00;101017.97;5052934;28;20037;-84
2023/09/08 06:55:16;;;;;;;73.40;30.08;;;;;;;16.59;100.00;101022.34;5019686;28;20025;-85
2023/09/08 06:57:45;;;;;;;61.58;29.23;;;;;;;16.61;100.00;101031.09;5019784;28;20037;-85
2023/09/08 07:00:12;;;;;;;66.22;28.58;;;;;;;16.61;100.00;101027.56;5053668;28;20415;-84
2023/09/08 07:02:38;;;;;;;61.53;29.45;;;;;;;16.65;100.00;101028.81;5054487;28;20036;-84
2023/09/08 07:05:07;;;;;;;63.17;29.05;;;;;;;16.76;100.00;101035.50;5038082;28;20123;-85
2023/09/08 07:07:37;;;;;;;65.95;29.23;;;;;;;16.84;100.00;101032.59;5054962;28;20163;-84
2023/09/08 07:10:04;;;;;;;67.60;28.73;;;;;;;16.98;100.00;101026.09;5054746;28;20056;-84
2023/09/08 07:12:30;;;;;;;59.20;28.40;;;;;;;17.09;100.00;101033.63;5038091;28;20055;-84
2023/09/08 07:14:56;;;;;;;54.10;27.38;;;;;;;17.16;100.00;101040.91;5037535;28;20025;-84
2023/09/08 07:17:23;;;;;;;52.95;27.15;;;;;;;17.19;100.00;101041.31;5054471;28;20033;-84
2023/09/08 07:19:49;;;;;;;47.45;25.23;;;;;;;17.26;100.00;101044.03;5055394;28;20060;-84
2023/09/08 07:22:15;;;;;;;56.80;27.17;;;;;;;17.35;100.00;101037.28;5037723;28;20067;-85
2023/09/08 07:24:41;;;;;;;59.25;28.15;;;;;;;17.64;100.00;101040.53;5053886;28;20029;-85
2023/09/08 07:27:06;;;;;;;58.00;29.48;;;;;;;17.90;100.00;101050.50;5054285;28;20056;-86
2023/09/08 07:29:32;;;;;;;55.25;26.88;;;;;;;18.18;100.00;101041.97;5037430;28;20456;-84
2023/09/08 07:31:58;;;;;;;44.63;25.77;;;;;;;18.38;100.00;101042.66;5053913;28;20120;-86
2023/09/08 07:34:23;;;;;;;43.10;24.98;;;;;;;18.77;100.00;101050.78;5054261;28;20479;-84
2023/09/08 07:36:49;;;;;;;36.72;23.15;;;;;;;18.91;100.00;101051.50;5055348;28;20487;-85
2023/09/08 07:39:15;;;;;;;32.88;20.77;;;;;;;19.61;100.00;101046.53;5037177;28;20097;-84
2023/09/08 07:41:41;;;;;;;30.08;19.63;;;;;;;19.62;100.00;101050.09;5054949;28;20107;-84
2023/09/08 07:44:07;;;;;;;28.52;18.20;;;;;;;19.83;100.00;101055.09;5037412;28;20472;-85
2023/09/08 07:46:33;;;;;;;25.63;16.42;;;;;;;19.49;100.00;101056.53;5037133;28;20032;-85
2023/09/08 07:49:01;;;;;;;28.40;17.00;;;;;;;18.87;100.00;101051.94;5053772;28;20029;-85
2023/09/08 07:51:27;;;;;;;29.27;16.65;;;;;;;18.56;100.00;101047.34;5037585;28;20035;-85
2023/09/08 07:53:53;;;;;;;30.13;18.60;;;;;;;18.79;100.00;101043.22;5021725;28;20057;-85
2023/09/08 07:56:19;;;;;;;28.77;16.67;;;;;;;19.93;100.00;101043.66;5054335;28;20029;-86
2023/09/08 07:58:45;;;;;;;30.25;16.27;;;;;;;20.67;100.00;101048.84;5053854;28;20526;-86
2023/09/08 08:01:12;;;;;;;25.25;14.77;;;;;;;21.19;100.00;101047.06;5070781;28;20104;-86
2023/09/08 08:03:38;;;;;;;24.80;13.45;;;;;;;21.61;100.00;101037.88;5036895;28;20487;-87
2023/09/08 08:06:05;;;;;;;20.83;12.20;;;;;;;21.66;100.00;101043.44;5053745;28;20060;-87
2023/09/08 08:08:32;;;;;;;19.50;12.18;;;;;;;21.90;100.00;101041.47;5036944;28;20048;-86
2023/09/08 08:10:59;;;;;;;19.75;12.52;;;;;;;21.74;100.00;101041.16;5054585;28;20535;-87
2023/09/08 08:13:25;;;;;;;20.50;12.38;;;;;;;21.28;100.00;101037.44;5053268;28;20025;-85
2023/09/08 08:15:50;;;;;;;18.58;12.13;;;;;;;21.18;100.00;101039.94;5054852;28;20455;-86
2023/09/08 08:18:16;;;;;;;21.20;12.93;;;;;;;21.59;100.00;101031.81;5053537;28;20396;-86
2023/09/08 08:20:42;;;;;;;20.10;12.48;;;;;;;22.26;100.00;101031.22;5053240;28;20559;-88
2023/09/08 08:23:08;;;;;;;17.63;12.82;;;;;;;23.00;100.00;101031.88;5035946;28;20110;-88
2023/09/08 08:25:34;;;;;;;15.85;11.55;;;;;;;23.54;100.00;101041.38;5069730;28;20032;-90
2023/09/08 08:28:00;;;;;;;18.15;11.40;;;;;;;23.40;100.00;101036.28;5053638;28;20033;-89
2023/09/08 08:30:27;;;;;;;18.08;11.60;;;;;;;24.18;100.00;101040.75;5053802;28;20052;-88
2023/09/08 08:32:53;;;;;;;18.75;10.35;;;;;;;24.46;100.00;101043.25;5053572;28;20559;-88
2023/09/08 08:35:19;;;;;;;20.05;10.85;;;;;;;24.43;100.00;101052.00;5037307;28;20476;-89
2023/09/08 08:37:45;;;;;;;20.15;10.35;;;;;;;24.98;100.00;101049.97;5070114;28;20435;-88
2023/09/08 08:40:13;;;;;;;17.17;10.40;;;;;;;24.60;100.00;101053.81;5037265;28;20029;-86
2023/09/08 08:42:42;;;;;;;21.23;10.23;;;;;;;25.34;100.00;101058.47;5054849;28;20036;-86
2023/09/08 08:45:08;;;;;;;15.88;9.77;;;;;;;26.12;100.00;101055.75;5055194;28;20037;-86
2023/09/08 08:47:34;;;;;;;14.40;9.23;;;;;;;26.64;100.00;101053.91;5039883;28;20479;-89
2023/09/08 08:50:04;;;;;;;16.42;9.57;;;;;;;26.98;100.00;101054.13;5048834;28;20044;-90
2023/09/08 08:52:30;;;;;;;17.30;9.68;;;;;;;27.06;100.00;101056.31;5044110;28;20037;-89
2023/09/08 08:54:56;;;;;;;17.38;9.70;;;;;;;27.45;100.00;101050.19;5070584;28;20024;-90
2023/09/08 08:57:22;;;;;;;19.25;10.32;;;;;;;27.70;100.00;101053.94;5075376;28;20020;-90
2023/09/08 08:59:49;;;;;;;13.68;8.95;;;;;;;27.86;100.00;101052.78;5061981;28;20029;-91
2023/09/08 09:02:14;;;;;;;17.20;9.60;;;;;;;27.90;100.00;101062.16;5053831;28;20041;-92
2023/09/08 09:04:41;;;;;;;16.25;9.90;;;;;;;28.20;100.00;101058.38;5053633;28;20385;-91
2023/09/08 09:07:07;;;;;;;17.67;10.57;;;;;;;28.11;99.50;101060.09;5021431;28;20033;-91
2023/09/08 09:09:33;;;;;;;12.27;9.77;;;;;;;27.95;100.00;101061.31;5053614;28;20403;-91
2023/09/08 09:11:58;;;;;;;18.00;10.32;;;;;;;28.04;97.99;101060.41;5037066;28;20032;-92
2023/09/08 09:14:24;;;;;;;19.65;11.18;;;;;;;28.26;96.28;101061.91;5054037;28;20036;-91
2023/09/08 09:16:50;;;;;;;18.63;10.88;;;;;;;28.54;93.81;101067.84;5037377;28;20081;-90
2023/09/08 09:19:25;;;;;;;14.77;9.55;;;;;;;28.56;88.04;101065.63;5070141;28;20025;-91
2023/09/08 09:21:54;;;;;;;21.73;10.23;;;;;;;28.41;88.86;101069.28;5036565;28;20033;-92
2023/09/08 09:24:44;;;;;;;12.30;9.15;;;;;;;28.47;86.07;101070.94;5053936;28;20029;-91
2023/09/08 09:27:22;;;;;;;18.85;9.27;;;;;;;28.86;85.54;101062.56;5036273;28;20243;-92
2023/09/08 09:29:52;;;;;;;18.00;9.38;;;;;;;28.82;81.10;101058.75;5036457;28;20041;-91
2023/09/08 09:32:24;;;;;;;14.90;9.27;;;;;;;28.46;81.59;101061.81;5053654;28;20131;-91
2023/09/08 09:34:54;;;;;;;14.70;8.70;;;;;;;28.59;82.84;101057.56;5054050;28;20039;-92
2023/09/08 09:37:20;;;;;;;17.90;9.43;;;;;;;28.72;81.26;101056.06;5055559;28;20025;-91
2023/09/08 09:39:54;;;;;;;15.45;9.05;;;;;;;29.05;79.33;101054.38;5057769;28;20048;-89
2023/09/08 09:42:22;;;;;;;14.90;8.45;;;;;;;29.25;77.69;101053.34;5057441;28;20029;-87
2023/09/08 09:44:52;;;;;;;16.00;8.57;;;;;;;29.10;75.27;101061.81;5057574;28;20045;-88
2023/09/08 09:47:19;;;;;;;14.40;8.75;;;;;;;29.15;74.78;101067.31;5047102;28;20037;-90
2023/09/08 09:49:45;;;;;;;16.13;7.97;;;;;;;28.27;80.68;101063.59;5055293;28;20052;-90
2023/09/08 09:52:22;;;;;;;17.00;7.63;;;;;;;27.12;87.54;101051.63;5072452;28;20021;-88
2023/09/08 09:54:50;;;;;;;14.50;8.30;;;;;;;26.31;93.23;101056.88;5062177;28;20045;-91
2023/09/08 09:57:38;;;;;;;12.50;8.18;;;;;;;26.39;91.90;101060.22;5062724;28;20114;-89
2023/09/08 10:00:05;;;;;;;12.10;8.10;;;;;;;26.88;88.29;101056.91;5057534;28;20096;-92
2023/09/08 10:02:31;;;;;;;13.45;7.25;;;;;;;28.24;80.59;101053.13;5041143;28;20357;-89
2023/09/08 10:05:10;;;;;;;13.82;7.60;;;;;;;29.09;74.26;101060.19;5058567;28;20055;-89
2023/09/08 10:07:36;;;;;;;16.85;7.53;;;;;;;29.17;71.52;101059.53;5064527;28;20503;-90
2023/09/08 10:10:02;;;;;;;17.50;7.18;;;;;;;29.16;71.44;101057.88;5063102;28;20029;-90
2023/09/08 10:12:31;;;;;;;19.80;7.82;;;;;;;29.30;71.15;101046.94;5057726;28;20063;-90
2023/09/08 10:14:57;;;;;;;14.35;6.90;;;;;;;29.24;68.83;101059.16;5057120;28;20021;-93
2023/09/08 10:17:28;;;;;;;14.93;7.20;;;;;;;29.27;67.69;101056.66;5040754;28;20070;-93
2023/09/08 10:19:57;;;;;;;17.48;7.57;;;;;;;29.50;67.74;101046.66;5040969;28;20031;-92
2023/09/08 10:22:26;;;;;;;17.13;7.18;;;;;;;29.53;65.26;101059.09;5056950;28;20032;-91
2023/09/08 10:24:54;;;;;;;14.32;7.43;;;;;;;29.48;64.20;101060.00;5024121;28;20036;-93
2023/09/08 10:27:22;;;;;;;14.52;6.80;;;;;;;29.41;63.88;101058.72;5023835;28;20487;-93
2023/09/08 10:30:34;;;;;;;12.10;6.60;;;;;;;29.61;62.63;101058.44;5056659;28;20048;-90
2023/09/08 10:33:39;;;;;;;14.43;6.70;;;;;;;29.70;59.68;101056.72;5023093;28;20045;-87
2023/09/08 10:36:14;;;;;;;16.57;6.40;;;;;;;29.45;60.17;101048.69;5059400;28;20029;-88
2023/09/08 10:38:41;;;;;;;11.23;6.60;;;;;;;29.53;59.97;101051.63;5058394;28;20349;-88
2023/09/08 10:41:16;;;;;;;14.57;6.57;;;;;;;29.54;58.20;101058.00;5073434;28;20071;-90
2023/09/08 10:44:01;;;;;;;11.32;5.32;;;;;;;29.63;57.48;101056.22;5055719;28;20395;-88
2023/09/08 10:46:28;;;;;;;9.02;6.13;;;;;;;29.74;59.20;101048.63;5039078;28;20437;-88
2023/09/08 10:49:06;;;;;;;13.15;5.80;;;;;;;29.93;57.95;101051.41;5054687;28;20029;-88
2023/09/08 10:51:34;;;;;;;13.73;4.47;;;;;;;29.97;54.76;101044.16;5036163;28;20041;-89
2023/09/08 10:54:01;;;;;;;9.60;5.03;;;;;;;29.89;53.68;101050.38;5038971;28;20029;-90
2023/09/08 10:56:48;;;;;;;9.98;4.47;;;;;;;29.79;51.99;101052.13;5056405;28;20028;-88
2023/09/08 10:59:14;;;;;;;9.80;5.03;;;;;;;29.57;52.22;101052.69;5055655;28;20032;-91
2023/09/08 11:01:41;;;;;;;7.50;5.28;;;;;;;29.50;53.61;101056.94;5056559;28;20029;-88
2023/09/08 11:04:10;;;;;;;10.05;5.57;;;;;;;29.63;54.47;101060.94;5054342;28;20561;-92
2023/09/08 11:06:35;;;;;;;10.45;5.65;;;;;;;29.79;54.31;101054.91;5056258;28;20468;-91